Wray, GA (31798)

12:38 AM EST on February 11, 2016 (GMT -0500)
Fitzgerald Municipal | | Change Station
CLOSE
Current Station
Airport
Location: Fitzgerald Muni, Fitzgerald,,
Elevation: 364 ft
Nearby Weather Stations
Active Advisory: Freeze Warning

Elev 364 ft 31.68 °N, 83.27 °W | Updated 3 minutes ago

Clear
Clear
34 °F
Feels Like 34 °F
N
0
Wind Variable Wind from North

Today
High -- | Low -- °F
--% Chance of Precip.
Yesterday
High -- | Low -- °F
Precip. -- in
Pressure 30.25 in
Visibility 10.0 miles
Clouds Clear
Dew Point 22 °F
Humidity 62%
Rainfall 0.00 in
Snow Depth Not available.
7:18 AM 6:15 PM
Waxing Crescent, 9% visible
METAR KFZG 110535Z AUTO 00000KT 10SM CLR 01/M06 A3025 RMK AO2 T00091056
Pressure 30.25 in
Visibility 10.0 miles
Clouds Clear
Dew Point 22 °F
Humidity 62%
Rainfall 0.00 in
Snow Depth Not available.
7:18 AM 6:15 PM
Waxing Crescent, 9% visible
METAR KFZG 110535Z AUTO 00000KT 10SM CLR 01/M06 A3025 RMK AO2 T00091056

10-Day Weather Forecast

Almanac

Astronomy

Feb. 11, 2016 Rise Set
Actual Time
Civil Twilight
Nautical Twilight
Astronomical Twilight
Moon
Length of Visible Light
Length of Day
Tomorrow will be .
, % of the Moon is Illuminated

Today's Extremes

State Highs State Lows

Community

WunderPhotos

Upload Photos

1,892,023 photos uploaded!

WunderBlog® & News

Nearby

Air Quality

  Air Quality AQ Index Pollutant
Not available.

Snow Depth

Station Depth Elevation

Earthquake Activity

City Distance Mag. Time & Date
Minimum magnitude displayed is 2.5.

Coastal Water Temperatures

Place Temperature

Stations

Nearby Weather Stations

Station Location Temp. Windchill Dew Point Humidity Wind Precip. Elev Updated Type
                   

Watches & Warnings

Freeze Warning
Issued: 8:07 PM CST Feb. 10, 2016 – National Weather Service

... Freeze warning remains in effect until 9 am EST /8 am CST/
Thursday...

* min temperatures... 26 to 32 degrees.

Precautionary/preparedness actions...

A freeze warning means sub-freezing temperatures are imminent or
highly likely. These conditions will kill crops and other
sensitive vegetation.



Harrigan